Time;durP1;ratioP1;P1;durP2;ratioP2;P2;SDS_P1;SDS_P2;PMS_P1;PMS_P2;Temp;Humidity;BMP_temperature;BMP_pressure;BME280_temperature;BME280_humidity;BME280_pressure;Samples;Min_cycle;Max_cycle;Signal;HPM_P1;HPM_P2
2022/05/02 00:00:11;;;;;;;8.27;4.10;;;7.40;81.20;;;;;;5071498;28;20066;-72
2022/05/02 00:02:37;;;;;;;6.82;3.65;;;7.40;81.20;;;;;;5066576;28;20475;-72
2022/05/02 00:05:04;;;;;;;5.18;3.60;;;7.40;81.10;;;;;;5068921;28;20087;-72
2022/05/02 00:07:30;;;;;;;7.22;3.67;;;7.40;81.10;;;;;;5066418;28;20036;-72
2022/05/02 00:09:56;;;;;;;5.85;3.72;;;7.40;81.40;;;;;;5070867;28;20032;-73
2022/05/02 00:12:21;;;;;;;6.47;3.72;;;7.40;81.40;;;;;;5068358;28;20032;-72
2022/05/02 00:14:47;;;;;;;9.52;3.90;;;7.40;81.10;;;;;;5070977;28;20093;-73
2022/05/02 00:17:12;;;;;;;7.57;3.85;;;7.40;81.40;;;;;;5054880;28;20029;-72
2022/05/02 00:19:38;;;;;;;6.82;4.22;;;7.40;81.40;;;;;;5065342;28;20037;-72
2022/05/02 00:22:04;;;;;;;6.78;4.07;;;7.40;81.50;;;;;;5070317;28;20473;-73
2022/05/02 00:24:30;;;;;;;8.68;4.30;;;7.40;81.50;;;;;;5065884;28;20094;-72
2022/05/02 00:26:56;;;;;;;6.95;4.38;;;7.40;81.30;;;;;;5070538;28;20048;-72
2022/05/02 00:29:22;;;;;;;8.55;4.25;;;7.40;81.30;;;;;;5069670;28;20032;-73
2022/05/02 00:31:47;;;;;;;8.27;4.00;;;7.40;82.00;;;;;;5069980;28;20387;-72
2022/05/02 00:34:13;;;;;;;8.23;4.72;;;7.30;81.50;;;;;;5064051;28;20037;-73
2022/05/02 00:36:39;;;;;;;9.35;4.10;;;7.40;81.40;;;;;;5064729;28;20044;-73
2022/05/02 00:39:05;;;;;;;7.65;4.35;;;7.40;81.40;;;;;;5070992;28;20040;-73
2022/05/02 00:41:30;;;;;;;10.25;4.05;;;7.40;81.20;;;;;;5070481;28;20056;-72
2022/05/02 00:43:56;;;;;;;7.38;4.10;;;7.40;81.40;;;;;;5070056;28;20024;-72
2022/05/02 00:46:24;;;;;;;6.18;3.72;;;7.40;81.40;;;;;;5071795;28;20032;-73
2022/05/02 00:48:50;;;;;;;8.15;4.13;;;7.40;81.30;;;;;;5071226;28;20042;-72
2022/05/02 00:51:17;;;;;;;6.72;3.90;;;7.30;81.70;;;;;;5068130;28;20036;-72
2022/05/02 00:53:47;;;;;;;7.45;3.90;;;7.20;81.90;;;;;;5069960;28;20041;-72
2022/05/02 00:56:14;;;;;;;8.13;3.90;;;7.10;81.60;;;;;;5071920;28;20036;-72
2022/05/02 00:58:40;;;;;;;8.93;4.40;;;7.10;81.70;;;;;;5067476;28;20032;-72
2022/05/02 01:01:05;;;;;;;6.68;4.35;;;7.10;81.90;;;;;;5071851;28;20101;-72
2022/05/02 01:03:33;;;;;;;9.20;4.00;;;7.10;82.30;;;;;;5068539;28;20112;-73
2022/05/02 01:08:43;;;;;;;7.03;4.40;;;7.10;82.40;;;;;;5069663;28;20145;-72
2022/05/02 01:11:08;;;;;;;8.45;4.40;;;7.20;83.30;;;;;;5071511;28;20052;-73
2022/05/02 01:13:34;;;;;;;8.15;3.90;;;7.20;83.20;;;;;;5071305;28;20143;-73
2022/05/02 01:16:06;;;;;;;9.23;4.45;;;7.20;83.20;;;;;;5065912;28;20045;-72
2022/05/02 01:18:31;;;;;;;7.88;4.10;;;7.30;82.70;;;;;;5068231;28;20483;-72
2022/05/02 01:20:57;;;;;;;7.60;4.15;;;7.30;82.40;;;;;;5067088;28;20029;-72
2022/05/02 01:23:22;;;;;;;8.27;4.50;;;7.30;82.10;;;;;;5062866;28;20391;-72
2022/05/02 01:25:47;;;;;;;6.00;4.05;;;7.30;82.00;;;;;;5064327;28;20113;-72
2022/05/02 01:28:13;;;;;;;7.20;4.05;;;7.30;82.00;;;;;;5067507;28;20043;-72
2022/05/02 01:30:39;;;;;;;6.57;3.97;;;7.40;82.30;;;;;;5071182;28;20419;-72
2022/05/02 01:33:04;;;;;;;7.25;4.07;;;7.40;81.80;;;;;;5067382;28;20387;-72
2022/05/02 01:35:30;;;;;;;7.63;4.43;;;7.40;81.70;;;;;;5065026;28;20480;-72
2022/05/02 01:37:55;;;;;;;7.75;4.47;;;7.40;82.00;;;;;;5067697;28;20046;-72
2022/05/02 01:40:21;;;;;;;7.78;4.45;;;7.40;82.20;;;;;;5068514;28;20519;-73
2022/05/02 01:42:46;;;;;;;8.43;4.45;;;7.40;82.30;;;;;;5063993;28;20043;-72
2022/05/02 01:45:12;;;;;;;8.73;4.72;;;7.40;82.20;;;;;;5066239;28;20588;-73
2022/05/02 01:47:37;;;;;;;9.35;4.50;;;7.40;82.20;;;;;;5065715;28;20099;-72
2022/05/02 01:50:03;;;;;;;7.93;4.82;;;7.40;82.40;;;;;;5063714;28;20159;-73
2022/05/02 01:52:29;;;;;;;11.38;4.90;;;7.50;82.70;;;;;;5066402;28;20090;-72
2022/05/02 01:54:54;;;;;;;7.03;4.20;;;7.40;82.50;;;;;;5067489;28;20051;-73
2022/05/02 01:57:19;;;;;;;8.60;4.50;;;7.40;82.60;;;;;;5066391;28;20051;-72
2022/05/02 01:59:45;;;;;;;7.65;4.07;;;7.40;82.50;;;;;;5067932;28;20033;-73
2022/05/02 02:02:10;;;;;;;7.22;4.63;;;7.40;82.20;;;;;;5068475;28;20037;-72
2022/05/02 02:07:20;;;;;;;7.55;4.50;;;7.40;82.50;;;;;;5068503;28;20040;-72
2022/05/02 02:09:45;;;;;;;7.82;4.68;;;7.30;82.20;;;;;;5064461;28;20433;-73
2022/05/02 02:12:11;;;;;;;8.05;4.38;;;7.30;82.30;;;;;;5070507;28;20524;-73
2022/05/02 02:14:36;;;;;;;6.22;4.00;;;7.30;82.10;;;;;;5068347;28;20037;-72
2022/05/02 02:17:02;;;;;;;11.82;4.68;;;7.20;82.20;;;;;;5069960;28;20036;-73
2022/05/02 02:19:28;;;;;;;13.15;5.18;;;7.10;82.50;;;;;;5075150;28;20371;-72
2022/05/02 02:22:16;;;;;;;9.32;4.80;;;7.10;82.90;;;;;;5069253;28;20103;-72
2022/05/02 02:24:38;;;;;;;8.43;4.47;;;7.00;83.00;;;;;;5060585;28;20027;-72
2022/05/02 02:27:04;;;;;;;8.10;4.95;;;6.80;83.20;;;;;;5066736;28;20251;-73
2022/05/02 02:29:30;;;;;;;6.78;5.00;;;6.80;84.10;;;;;;5070731;28;20047;-72
2022/05/02 02:31:55;;;;;;;9.20;5.10;;;6.70;84.30;;;;;;5068975;28;20036;-72
2022/05/02 02:34:21;;;;;;;9.48;4.60;;;6.60;84.50;;;;;;5065980;28;20042;-72
2022/05/02 02:36:46;;;;;;;8.98;5.13;;;6.50;84.80;;;;;;5070469;28;20426;-72
2022/05/02 02:39:12;;;;;;;8.48;5.32;;;6.50;85.10;;;;;;5060966;28;20097;-73
2022/05/02 02:41:37;;;;;;;8.95;5.25;;;6.60;85.00;;;;;;5066215;28;20052;-72
2022/05/02 02:44:03;;;;;;;8.40;5.10;;;6.50;84.80;;;;;;5060499;28;20044;-72
2022/05/02 02:46:28;;;;;;;16.73;5.95;;;6.50;84.70;;;;;;5070294;28;20549;-72
2022/05/02 02:48:54;;;;;;;9.23;5.63;;;6.50;84.80;;;;;;5070032;28;20028;-73
2022/05/02 02:51:19;;;;;;;8.30;5.35;;;6.50;84.90;;;;;;5068198;28;20119;-72
2022/05/02 02:53:45;;;;;;;10.38;6.18;;;6.40;85.10;;;;;;5064833;28;20028;-72
2022/05/02 02:56:10;;;;;;;12.95;5.90;;;6.40;85.20;;;;;;5067034;28;20090;-72
2022/05/02 02:58:36;;;;;;;10.75;6.35;;;6.30;85.50;;;;;;5065982;28;20098;-72
2022/05/02 03:01:02;;;;;;;7.97;5.53;;;6.30;85.40;;;;;;5068769;28;20029;-72
2022/05/02 03:03:28;;;;;;;11.55;5.72;;;6.20;85.50;;;;;;5067301;28;20105;-73
2022/05/02 03:06:03;;;;;;;10.65;5.75;;;6.20;85.80;;;;;;5065978;28;20031;-72
2022/05/02 03:08:31;;;;;;;8.68;6.20;;;6.20;86.00;;;;;;5068207;28;20032;-72
2022/05/02 03:10:57;;;;;;;10.77;6.07;;;6.20;86.10;;;;;;5068010;28;20411;-72
2022/05/02 03:13:23;;;;;;;10.23;5.97;;;6.20;86.10;;;;;;5068607;28;20039;-72
2022/05/02 03:15:49;;;;;;;11.50;5.65;;;6.20;86.10;;;;;;5066185;28;20132;-72
2022/05/02 03:18:14;;;;;;;8.50;6.03;;;6.10;86.10;;;;;;5066522;28;20094;-72
2022/05/02 03:20:40;;;;;;;9.80;5.93;;;6.00;86.20;;;;;;5065442;28;20032;-72
2022/05/02 03:23:05;;;;;;;9.85;6.20;;;5.90;86.30;;;;;;5067511;28;20032;-72
2022/05/02 03:25:31;;;;;;;9.05;5.72;;;5.80;86.70;;;;;;5066477;28;20078;-72
2022/05/02 03:27:56;;;;;;;11.27;6.60;;;5.70;86.80;;;;;;5066779;28;20040;-72
2022/05/02 03:30:22;;;;;;;10.40;6.63;;;5.70;87.00;;;;;;5067843;28;20048;-72
2022/05/02 03:32:48;;;;;;;11.13;5.97;;;5.70;87.30;;;;;;5060598;28;20027;-72
2022/05/02 03:35:13;;;;;;;9.75;6.10;;;5.60;87.30;;;;;;5069168;28;20422;-72
2022/05/02 03:37:39;;;;;;;8.57;6.13;;;5.60;87.40;;;;;;5066711;28;20031;-73
2022/05/02 03:40:05;;;;;;;13.02;6.93;;;5.50;87.30;;;;;;5069337;28;20399;-72
2022/05/02 03:42:31;;;;;;;9.18;6.25;;;5.50;87.40;;;;;;5069175;28;20098;-72
2022/05/02 03:44:56;;;;;;;12.75;6.63;;;5.50;87.60;;;;;;5067911;28;20472;-72
2022/05/02 03:47:22;;;;;;;15.73;6.60;;;5.50;87.70;;;;;;5066156;28;20040;-72
2022/05/02 03:49:48;;;;;;;10.43;6.88;;;5.50;87.90;;;;;;5061655;28;20076;-72
2022/05/02 03:52:13;;;;;;;10.23;6.25;;;5.40;87.90;;;;;;5065921;28;20588;-72
2022/05/02 03:54:39;;;;;;;13.23;6.70;;;5.30;87.80;;;;;;5069994;28;20384;-72
2022/05/02 03:57:05;;;;;;;12.05;7.53;;;5.30;88.00;;;;;;5068877;28;20025;-72
2022/05/02 03:59:30;;;;;;;12.65;7.45;;;5.30;88.10;;;;;;5062226;28;20036;-72
2022/05/02 04:01:56;;;;;;;10.13;6.50;;;5.30;88.10;;;;;;5061952;28;20651;-73
2022/05/02 04:04:21;;;;;;;12.25;7.28;;;5.40;88.10;;;;;;5063623;28;20040;-72
2022/05/02 04:06:48;;;;;;;11.25;7.43;;;5.30;88.20;;;;;;5061641;28;20032;-72
2022/05/02 04:09:14;;;;;;;15.13;7.05;;;5.40;88.40;;;;;;5064401;28;20041;-72
2022/05/02 04:11:39;;;;;;;13.07;7.18;;;5.40;88.40;;;;;;5066079;28;20126;-72
2022/05/02 04:14:05;;;;;;;11.38;7.57;;;5.50;88.30;;;;;;5065429;28;20043;-70
2022/05/02 04:16:30;;;;;;;16.67;6.72;;;5.60;88.10;;;;;;5068025;28;20120;-71
2022/05/02 04:18:55;;;;;;;14.95;7.32;;;5.60;88.10;;;;;;5065851;28;20029;-69
2022/05/02 04:21:21;;;;;;;11.45;6.70;;;5.70;88.00;;;;;;5068582;28;20105;-69
2022/05/02 04:23:47;;;;;;;12.52;6.97;;;5.80;87.90;;;;;;5062376;28;20044;-69
2022/05/02 04:26:12;;;;;;;10.60;6.50;;;5.90;87.50;;;;;;5066332;28;20483;-69
2022/05/02 04:28:38;;;;;;;10.85;6.20;;;6.00;87.40;;;;;;5067231;28;20436;-69
2022/05/02 04:31:03;;;;;;;10.85;6.38;;;6.10;87.30;;;;;;5066578;28;20025;-70
2022/05/02 04:33:29;;;;;;;9.60;6.30;;;6.10;86.90;;;;;;5066994;28;20028;-70
2022/05/02 04:35:55;;;;;;;10.02;6.00;;;6.10;86.70;;;;;;5067823;28;20072;-70
2022/05/02 04:38:20;;;;;;;8.75;5.72;;;6.20;86.60;;;;;;5066836;28;20059;-70
2022/05/02 04:40:46;;;;;;;8.60;5.60;;;6.30;86.60;;;;;;5060715;28;20499;-69
2022/05/02 04:43:13;;;;;;;10.20;6.13;;;6.30;86.50;;;;;;5064817;28;20040;-68
2022/05/02 04:45:39;;;;;;;12.95;5.82;;;6.40;86.80;;;;;;5062209;28;20032;-68
2022/05/02 04:48:05;;;;;;;7.43;5.28;;;6.40;86.60;;;;;;5070656;28;20102;-68
2022/05/02 04:50:31;;;;;;;11.43;5.97;;;6.40;86.30;;;;;;5068191;28;20464;-68
2022/05/02 04:52:56;;;;;;;9.32;6.07;;;6.40;86.10;;;;;;5068792;28;20498;-68
2022/05/02 04:55:22;;;;;;;8.15;5.78;;;6.50;86.00;;;;;;5070769;28;20094;-70
2022/05/02 04:57:47;;;;;;;7.78;5.55;;;6.40;86.00;;;;;;5065714;28;20032;-70
2022/05/02 05:00:16;;;;;;;11.25;5.72;;;6.50;86.10;;;;;;5065321;28;20498;-70
2022/05/02 05:02:42;;;;;;;9.65;5.88;;;6.40;86.10;;;;;;5057619;28;20041;-70
2022/05/02 05:05:08;;;;;;;15.25;6.35;;;6.40;86.00;;;;;;5069679;28;20035;-70
2022/05/02 05:07:36;;;;;;;9.50;6.47;;;6.30;86.10;;;;;;5067121;28;20545;-70
2022/05/02 05:10:01;;;;;;;13.35;6.25;;;6.30;86.10;;;;;;5065410;28;20602;-69
2022/05/02 05:13:03;;;;;;;10.68;6.38;;;6.30;86.00;;;;;;5072506;28;20115;-70
2022/05/02 05:18:39;;;;;;;11.02;7.53;;;6.40;86.50;;;;;;5071805;28;20039;-70
2022/05/02 05:21:14;;;;;;;11.38;7.20;;;6.50;86.60;;;;;;5067125;28;20019;-70
2022/05/02 05:24:16;;;;;;;11.05;7.07;;;6.50;86.70;;;;;;5064140;28;20044;-70
2022/05/02 05:26:58;;;;;;;10.65;6.90;;;6.60;86.80;;;;;;5081829;28;20028;-69
2022/05/02 05:29:48;;;;;;;11.05;7.05;;;6.70;87.00;;;;;;5064412;28;20124;-70
2022/05/02 05:32:22;;;;;;;12.13;7.07;;;6.70;86.90;;;;;;5069318;28;20032;-70
2022/05/02 05:35:00;;;;;;;14.70;7.05;;;6.80;86.70;;;;;;5064150;28;20177;-70
2022/05/02 05:38:03;;;;;;;17.40;6.88;;;6.90;86.40;;;;;;5067398;28;20120;-70
2022/05/02 05:40:38;;;;;;;11.65;6.57;;;7.00;85.90;;;;;;5068114;28;20178;-70
2022/05/02 05:43:22;;;;;;;11.10;6.32;;;7.20;85.10;;;;;;5064488;28;20035;-73
2022/05/02 05:46:02;;;;;;;9.57;5.55;;;7.30;84.70;;;;;;5066014;28;20032;-73
2022/05/02 05:48:55;;;;;;;8.52;5.00;;;7.50;84.40;;;;;;5066185;28;20471;-70
2022/05/02 05:51:36;;;;;;;7.38;4.47;;;7.60;83.10;;;;;;5069182;28;20032;-70
2022/05/02 05:54:36;;;;;;;12.60;5.17;;;7.70;81.50;;;;;;5067787;28;20035;-70
2022/05/02 05:57:26;;;;;;;9.98;4.50;;;7.90;80.30;;;;;;5065031;28;20275;-70
2022/05/02 06:00:03;;;;;;;8.73;5.03;;;8.10;80.10;;;;;;5089179;28;20387;-70
2022/05/02 06:02:47;;;;;;;11.90;6.07;;;8.30;79.40;;;;;;5095290;28;20028;-72
2022/05/02 06:05:13;;;;;;;11.23;5.40;;;8.50;77.90;;;;;;5065286;28;20047;-73
2022/05/02 06:07:39;;;;;;;16.63;6.13;;;8.60;76.40;;;;;;5082291;28;20028;-72
2022/05/02 06:10:07;;;;;;;9.05;4.90;;;8.70;76.80;;;;;;5089688;28;20036;-73
2022/05/02 06:12:33;;;;;;;6.60;4.20;;;8.80;76.60;;;;;;5088606;28;20083;-72
2022/05/02 06:20:33;;;;;;;6.80;4.00;;;9.30;76.40;;;;;;5085455;28;20063;-72
2022/05/02 06:23:00;;;;;;;5.05;3.25;;;9.50;75.70;;;;;;5087350;28;20028;-72
2022/05/02 06:25:29;;;;;;;8.80;3.47;;;9.70;72.50;;;;;;5088880;28;20497;-72
2022/05/02 06:27:56;;;;;;;8.13;3.70;;;9.80;72.80;;;;;;5093455;28;20028;-70
2022/05/02 06:30:23;;;;;;;6.88;3.53;;;10.00;72.10;;;;;;5071579;28;20024;-70
2022/05/02 06:32:51;;;;;;;5.50;3.45;;;10.10;71.40;;;;;;5088585;28;20028;-70
2022/05/02 06:35:17;;;;;;;4.45;2.92;;;10.30;71.30;;;;;;5079398;28;20439;-70
2022/05/02 06:37:48;;;;;;;6.85;2.63;;;10.70;72.00;;;;;;5085718;28;20415;-71
2022/05/02 06:40:36;;;;;;;4.60;2.65;;;10.80;68.70;;;;;;5087394;28;20089;-70
2022/05/02 06:43:17;;;;;;;4.68;2.38;;;10.80;68.90;;;;;;5085477;28;20036;-72
2022/05/02 06:46:10;;;;;;;7.53;2.63;;;11.10;66.70;;;;;;5087187;28;20024;-71
2022/05/02 06:48:45;;;;;;;12.40;2.80;;;11.30;66.10;;;;;;5088654;28;20471;-72
2022/05/02 06:51:16;;;;;;;5.53;2.10;;;11.50;67.50;;;;;;5088795;28;20024;-72
2022/05/02 06:54:10;;;;;;;5.63;1.90;;;11.80;62.80;;;;;;5091640;28;20089;-72
2022/05/02 06:56:43;;;;;;;4.07;1.67;;;12.10;62.20;;;;;;5073014;28;20033;-72
2022/05/02 06:59:34;;;;;;;3.33;1.88;;;12.40;60.30;;;;;;5084795;28;20035;-71
2022/05/02 07:02:26;;;;;;;3.47;1.80;;;12.50;58.20;;;;;;5088957;28;20450;-72
2022/05/02 07:04:53;;;;;;;2.55;1.40;;;12.80;59.90;;;;;;5042993;28;20032;-72
2022/05/02 07:07:35;;;;;;;2.85;1.45;;;12.90;59.30;;;;;;5087108;28;20032;-72
2022/05/02 07:10:06;;;;;;;3.88;1.60;;;13.00;57.00;;;;;;5087225;28;20034;-72
2022/05/02 07:12:38;;;;;;;4.00;2.03;;;13.10;56.30;;;;;;5068131;28;20040;-72
2022/05/02 07:15:11;;;;;;;3.80;1.52;;;13.40;57.60;;;;;;5087734;28;20032;-72
2022/05/02 07:17:43;;;;;;;4.93;1.52;;;13.30;55.10;;;;;;5091053;28;20035;-72
2022/05/02 07:20:42;;;;;;;3.42;1.50;;;13.50;55.50;;;;;;5085610;28;20458;-72
2022/05/02 07:23:38;;;;;;;5.13;1.60;;;13.10;54.50;;;;;;5082640;28;20438;-71
2022/05/02 07:26:09;;;;;;;3.90;1.60;;;13.30;55.40;;;;;;5077192;28;20032;-72
2022/05/02 07:28:44;;;;;;;5.25;1.63;;;13.40;55.50;;;;;;5088354;28;20031;-72
2022/05/02 07:31:11;;;;;;;5.18;1.30;;;13.50;53.20;;;;;;5082997;28;20084;-71
2022/05/02 07:33:38;;;;;;;8.10;1.85;;;13.60;53.10;;;;;;5077015;28;20040;-71
2022/05/02 07:36:05;;;;;;;3.70;1.63;;;13.40;54.00;;;;;;5086499;28;20028;-72
2022/05/02 07:38:35;;;;;;;3.35;1.40;;;13.50;52.90;;;;;;5088389;28;20353;-71
2022/05/02 07:43:49;;;;;;;2.35;1.40;;;13.70;54.20;;;;;;5082642;28;20073;-71
2022/05/02 07:46:20;;;;;;;2.47;1.25;;;13.60;52.10;;;;;;5083349;28;20036;-71
2022/05/02 07:48:49;;;;;;;4.57;1.63;;;13.80;52.70;;;;;;5085317;28;20032;-71
2022/05/02 07:51:15;;;;;;;3.90;1.60;;;13.90;52.90;;;;;;5084042;28;20443;-71
2022/05/02 07:53:43;;;;;;;2.25;1.40;;;14.00;52.80;;;;;;5079711;28;20020;-71
2022/05/02 07:56:10;;;;;;;4.47;1.70;;;14.10;52.10;;;;;;5084627;28;20020;-71
2022/05/02 07:58:40;;;;;;;1.95;1.20;;;14.30;54.80;;;;;;5084252;28;20478;-71
2022/05/02 08:01:05;;;;;;;3.25;1.38;;;14.20;51.60;;;;;;5077813;28;20020;-72
2022/05/02 08:03:31;;;;;;;3.58;1.70;;;13.90;51.80;;;;;;5082018;28;20449;-72
2022/05/02 08:06:11;;;;;;;3.83;1.50;;;13.80;51.20;;;;;;5083372;28;20421;-72
2022/05/02 08:08:50;;;;;;;3.95;1.73;;;14.00;53.20;;;;;;5068719;28;20030;-71
2022/05/02 08:11:33;;;;;;;3.10;1.50;;;14.50;52.00;;;;;;5076515;28;20467;-71
2022/05/02 08:14:26;;;;;;;7.38;1.75;;;14.30;52.20;;;;;;5080186;28;20031;-72
2022/05/02 08:17:16;;;;;;;3.15;1.67;;;14.40;51.10;;;;;;5083113;28;20176;-71
2022/05/02 08:20:26;;;;;;;2.92;1.77;;;14.40;50.90;;;;;;5077336;28;20357;-71
2022/05/02 08:29:33;;;;;;;4.65;1.77;;;15.30;51.10;;;;;;5087151;28;20061;-71
2022/05/02 08:32:34;;;;;;;3.53;1.83;;;15.40;50.00;;;;;;5083685;28;20024;-72
2022/05/02 08:35:07;;;;;;;4.03;2.28;;;15.70;51.50;;;;;;5072303;28;20043;-71
2022/05/02 08:37:41;;;;;;;5.32;2.22;;;15.70;49.00;;;;;;5088064;28;20048;-72
2022/05/02 08:40:25;;;;;;;5.15;2.22;;;15.50;49.30;;;;;;5087456;28;20153;-72
2022/05/02 08:43:00;;;;;;;5.97;2.15;;;15.20;48.50;;;;;;5089073;28;20540;-72
2022/05/02 08:45:56;;;;;;;3.55;1.85;;;15.00;50.50;;;;;;5088026;28;20518;-71
2022/05/02 08:52:28;;;;;;;3.22;2.20;;;16.00;46.70;;;;;;5029315;28;20174;-71
2022/05/02 08:55:20;;;;;;;6.15;3.03;;;16.30;47.00;;;;;;5027060;28;20037;-71
2022/05/02 08:58:32;;;;;;;5.57;3.17;;;16.00;45.30;;;;;;5084499;28;20128;-71
2022/05/02 09:01:27;;;;;;;5.13;3.15;;;15.90;46.00;;;;;;5084772;28;20016;-72
2022/05/02 09:04:11;;;;;;;5.50;3.10;;;16.00;44.30;;;;;;5082544;28;20119;-72
2022/05/02 09:06:48;;;;;;;6.70;3.03;;;16.00;47.80;;;;;;5085956;28;20073;-71
2022/05/02 09:09:34;;;;;;;6.07;2.90;;;15.90;48.70;;;;;;5082313;28;20040;-71
2022/05/02 09:12:06;;;;;;;5.00;2.83;;;16.40;49.80;;;;;;5089298;28;20023;-72
2022/05/02 09:14:46;;;;;;;4.90;3.00;;;17.10;45.50;;;;;;5090858;28;20044;-72
2022/05/02 09:17:50;;;;;;;8.67;3.47;;;16.60;43.10;;;;;;5084783;28;20032;-73
2022/05/02 09:20:24;;;;;;;8.00;3.38;;;16.60;47.00;;;;;;5088233;28;20028;-71
2022/05/02 09:23:17;;;;;;;7.13;3.22;;;17.10;42.50;;;;;;5090205;28;20032;-72
2022/05/02 09:25:58;;;;;;;11.32;4.45;;;16.70;43.80;;;;;;5085590;28;20062;-72
2022/05/02 09:28:44;;;;;;;8.50;4.13;;;16.50;42.40;;;;;;5087744;28;20032;-72
2022/05/02 09:31:19;;;;;;;7.70;4.13;;;16.20;44.40;;;;;;5081575;28;20055;-72
2022/05/02 09:34:14;;;;;;;8.70;4.45;;;16.20;43.00;;;;;;5084684;28;20032;-72
2022/05/02 09:36:58;;;;;;;9.75;4.18;;;15.80;42.90;;;;;;5087447;28;20499;-71
2022/05/02 09:39:30;;;;;;;6.63;4.32;;;16.30;43.40;;;;;;5082210;28;20024;-72
2022/05/02 09:42:40;;;;;;;9.82;4.57;;;16.50;43.10;;;;;;5073598;28;20044;-72
2022/05/02 09:49:39;;;;;;;9.18;4.82;;;16.30;42.10;;;;;;5058792;28;20132;-73
2022/05/02 09:52:04;;;;;;;8.52;4.28;;;16.80;42.00;;;;;;5054721;28;20527;-72
2022/05/02 09:57:23;;;;;;;7.53;4.35;;;17.30;42.20;;;;;;5065629;28;20086;-72
2022/05/02 10:02:44;;;;;;;8.82;4.38;;;18.00;41.30;;;;;;5063411;28;20090;-72
2022/05/02 10:05:16;;;;;;;10.00;5.10;;;18.00;41.50;;;;;;5066551;28;20419;-72
2022/05/02 10:08:07;;;;;;;5.75;3.70;;;17.50;41.60;;;;;;5065894;28;20032;-72
2022/05/02 10:10:59;;;;;;;;;;;18.00;42.80;;;;;;5068485;28;20035;-73
2022/05/02 10:13:54;;;;;;;11.15;5.10;;;17.40;40.70;;;;;;5063227;28;20251;-72
2022/05/02 10:16:25;;;;;;;9.43;4.60;;;17.40;41.70;;;;;;5067671;28;20044;-72
2022/05/02 10:19:19;;;;;;;7.13;4.05;;;16.90;43.00;;;;;;5059531;28;20016;-72
2022/05/02 10:22:14;;;;;;;7.78;4.40;;;17.60;45.10;;;;;;5064592;28;20024;-72
2022/05/02 10:24:59;;;;;;;5.85;4.28;;;17.80;42.30;;;;;;5070806;28;20027;-72
2022/05/02 10:27:52;;;;;;;6.03;3.55;;;17.30;42.10;;;;;;5066195;28;20032;-72
2022/05/02 10:30:19;;;;;;;7.85;4.20;;;17.30;42.70;;;;;;5068508;28;20044;-72
2022/05/02 10:32:56;;;;;;;7.70;4.50;;;17.00;43.60;;;;;;5066970;28;20042;-72
2022/05/02 10:35:24;;;;;;;6.85;4.10;;;17.50;41.80;;;;;;5063727;28;20073;-73
2022/05/02 10:38:01;;;;;;;8.57;4.00;;;17.30;41.90;;;;;;5064188;28;20036;-70
2022/05/02 10:40:36;;;;;;;8.98;3.75;;;17.80;42.10;;;;;;5058816;28;20020;-70
2022/05/02 10:43:07;;;;;;;6.95;4.10;;;18.00;41.00;;;;;;5068023;28;20530;-70
2022/05/02 10:45:37;;;;;;;;;;;18.00;40.80;;;;;;5064839;28;20029;-70
2022/05/02 10:48:18;;;;;;;7.40;4.35;;;18.40;42.50;;;;;;5081115;28;20054;-70
2022/05/02 10:51:03;;;;;;;9.48;4.43;;;18.30;40.00;;;;;;5084013;28;20409;-70
2022/05/02 10:53:50;;;;;;;7.97;4.03;;;18.10;42.70;;;;;;5086037;28;20023;-70
2022/05/02 10:56:27;;;;;;;7.25;4.47;;;18.70;41.10;;;;;;5082207;28;20429;-70
2022/05/02 10:58:56;;;;;;;7.13;4.00;;;18.70;40.00;;;;;;5086396;28;20020;-70
2022/05/02 11:01:46;;;;;;;8.55;4.63;;;19.50;39.50;;;;;;5081754;28;20693;-70
2022/05/02 11:04:20;;;;;;;7.00;4.30;;;19.10;39.60;;;;;;5084844;28;20032;-70
2022/05/02 11:07:18;;;;;;;7.70;4.47;;;18.60;40.20;;;;;;5087218;28;20093;-70
2022/05/02 11:10:13;;;;;;;8.02;5.00;;;19.70;38.90;;;;;;5086965;28;20415;-70
2022/05/02 11:12:51;;;;;;;9.00;5.10;;;18.80;39.10;;;;;;5069986;28;20040;-70
2022/05/02 11:15:18;;;;;;;8.38;4.57;;;19.20;38.20;;;;;;5086656;28;20044;-70
2022/05/02 11:18:08;;;;;;;6.65;4.40;;;20.20;38.70;;;;;;5087388;28;20451;-70
2022/05/02 11:20:51;;;;;;;6.80;4.53;;;18.90;39.10;;;;;;5083826;28;20020;-70
2022/05/02 11:23:36;;;;;;;7.32;4.53;;;19.60;40.80;;;;;;5086029;28;20739;-70
2022/05/02 11:26:21;;;;;;;9.98;4.68;;;19.30;37.80;;;;;;5084395;28;20534;-70
2022/05/02 11:29:15;;;;;;;7.55;4.65;;;19.10;39.20;;;;;;5080921;28;20055;-71
2022/05/02 11:31:57;;;;;;;5.80;4.05;;;18.70;41.00;;;;;;5080888;28;20020;-70
2022/05/02 11:34:35;;;;;;;8.63;5.10;;;18.70;40.90;;;;;;5085004;28;20036;-70
2022/05/02 11:37:01;;;;;;;11.52;4.88;;;18.70;40.20;;;;;;5085693;28;20102;-72
2022/05/02 11:39:38;;;;;;;11.30;5.00;;;18.80;39.70;;;;;;5081825;28;20490;-72
2022/05/02 11:42:09;;;;;;;8.32;4.72;;;19.30;40.70;;;;;;5084005;28;20052;-72
2022/05/02 11:44:57;;;;;;;7.97;5.32;;;18.60;39.00;;;;;;5084541;28;20016;-72
2022/05/02 11:47:41;;;;;;;7.15;4.78;;;19.00;37.80;;;;;;5082276;28;20459;-71
2022/05/02 11:50:09;;;;;;;6.07;4.10;;;20.30;37.10;;;;;;5085354;28;20409;-72
2022/05/02 11:52:38;;;;;;;7.32;4.47;;;20.80;37.10;;;;;;5088707;28;20024;-71
2022/05/02 11:55:06;;;;;;;8.45;4.65;;;19.70;37.20;;;;;;5090918;28;20036;-72
2022/05/02 11:57:31;;;;;;;8.00;4.60;;;19.70;38.40;;;;;;5089739;28;20043;-72
2022/05/02 12:00:14;;;;;;;7.90;4.85;;;19.80;38.80;;;;;;5089277;28;20024;-72
2022/05/02 12:03:02;;;;;;;8.07;4.60;;;19.60;38.00;;;;;;5089314;28;20020;-71
2022/05/02 12:05:31;;;;;;;9.40;4.82;;;19.80;39.40;;;;;;5088969;28;20028;-71
2022/05/02 12:08:02;;;;;;;7.07;4.13;;;20.10;36.90;;;;;;5087111;28;20119;-72
2022/05/02 12:10:41;;;;;;;8.63;4.47;;;20.30;37.10;;;;;;5090537;28;20063;-72
2022/05/02 12:13:12;;;;;;;9.52;4.72;;;20.90;36.20;;;;;;5089769;28;20486;-72
2022/05/02 12:15:58;;;;;;;9.18;4.68;;;20.50;36.70;;;;;;5091753;28;20056;-72
2022/05/02 12:18:37;;;;;;;6.25;4.53;;;20.50;37.10;;;;;;5085636;28;20035;-72
2022/05/02 12:21:05;;;;;;;9.00;4.43;;;21.00;35.40;;;;;;5087609;28;20462;-72
2022/05/02 12:23:33;;;;;;;6.85;4.50;;;21.20;35.00;;;;;;5087529;28;20028;-72
2022/05/02 12:26:03;;;;;;;8.35;4.70;;;21.00;35.30;;;;;;5085756;28;20468;-72
2022/05/02 12:28:48;;;;;;;6.22;4.47;;;22.20;34.00;;;;;;5083850;28;20036;-72
2022/05/02 12:31:35;;;;;;;6.97;4.50;;;21.60;35.60;;;;;;5083582;28;20132;-72
2022/05/02 12:34:05;;;;;;;7.47;4.40;;;22.10;34.80;;;;;;5089847;28;20020;-72
2022/05/02 12:36:37;;;;;;;;;;;22.00;34.00;;;;;;5084855;28;20518;-72
2022/05/02 12:39:05;;;;;;;7.53;4.55;;;20.50;35.70;;;;;;5070943;28;20037;-72
2022/05/02 12:41:47;;;;;;;6.78;4.47;;;21.20;35.20;;;;;;5091276;28;20093;-71
2022/05/02 12:44:14;;;;;;;8.10;4.60;;;20.40;36.50;;;;;;5089496;28;20113;-71
2022/05/02 12:46:44;;;;;;;8.88;4.82;;;21.10;35.00;;;;;;5090103;28;20108;-71
2022/05/02 12:49:33;;;;;;;;;;;21.40;35.80;;;;;;5092152;28;20073;-70
2022/05/02 12:51:59;;;;;;;9.88;4.45;;;21.40;34.70;;;;;;5089165;28;19904;-71
2022/05/02 12:54:29;;;;;;;7.70;4.38;;;21.20;34.70;;;;;;5074964;28;20035;-71
2022/05/02 13:02:41;;;;;;;6.93;4.63;;;19.10;37.60;;;;;;5088819;28;20023;-70
2022/05/02 13:05:13;;;;;;;9.63;4.97;;;18.50;39.40;;;;;;5088930;28;20105;-71
2022/05/02 13:07:44;;;;;;;9.68;4.85;;;18.10;40.10;;;;;;5082792;28;20028;-72
2022/05/02 13:10:25;;;;;;;8.82;4.97;;;18.60;41.10;;;;;;5086148;28;20055;-71
2022/05/02 13:13:07;;;;;;;6.97;4.35;;;18.60;39.70;;;;;;5082320;28;20020;-72
2022/05/02 13:15:36;;;;;;;8.32;4.60;;;19.30;39.60;;;;;;5085246;28;20066;-72
2022/05/02 13:18:08;;;;;;;6.32;4.45;;;19.70;37.80;;;;;;5091968;28;20036;-72
2022/05/02 13:20:34;;;;;;;7.88;4.80;;;20.60;36.50;;;;;;5091653;28;20043;-72
2022/05/02 13:23:13;;;;;;;8.25;4.55;;;21.40;34.70;;;;;;5087679;28;20073;-72
2022/05/02 13:26:20;;;;;;;7.47;4.13;;;21.30;34.40;;;;;;5092464;28;20024;-72
2022/05/02 13:29:15;;;;;;;7.82;3.83;;;21.00;33.90;;;;;;5063181;28;20048;-72
2022/05/02 13:31:47;;;;;;;5.93;4.32;;;21.00;34.40;;;;;;5086986;28;20037;-72
2022/05/02 13:34:35;;;;;;;7.05;4.53;;;20.10;35.40;;;;;;5078194;28;20032;-72
2022/05/02 13:37:14;;;;;;;10.70;4.43;;;20.10;35.80;;;;;;5088369;28;20070;-72
2022/05/02 13:39:52;;;;;;;6.57;4.63;;;20.50;35.30;;;;;;5091114;28;20032;-72
2022/05/02 13:42:27;;;;;;;6.38;3.95;;;20.70;36.10;;;;;;5074779;28;20082;-72
2022/05/02 13:44:57;;;;;;;6.60;4.22;;;21.60;34.40;;;;;;5070351;28;20479;-73
2022/05/02 13:47:27;;;;;;;6.93;4.40;;;21.50;36.00;;;;;;5067837;28;20502;-72
2022/05/02 13:50:13;;;;;;;6.40;4.25;;;22.90;32.10;;;;;;5066878;28;20640;-72
2022/05/02 13:52:47;;;;;;;6.07;4.20;;;23.10;32.80;;;;;;5065620;28;20023;-73
2022/05/02 13:55:29;;;;;;;10.05;4.53;;;22.50;32.60;;;;;;5064911;28;20028;-71
2022/05/02 13:58:32;;;;;;;6.50;4.07;;;21.50;34.30;;;;;;5068131;28;20036;-71
2022/05/02 14:03:48;;;;;;;8.00;4.20;;;20.60;36.70;;;;;;5066538;28;20036;-70
2022/05/02 14:06:18;;;;;;;8.65;4.18;;;20.90;35.00;;;;;;5071366;28;20108;-70
2022/05/02 14:08:44;;;;;;;8.20;3.25;;;20.90;35.90;;;;;;5071895;28;20064;-70